Time;durP1;ratioP1;P1;durP2;ratioP2;P2;SDS_P1;SDS_P2;PMS_P1;PMS_P2;Temp;Humidity;BMP_temperature;BMP_pressure;BME280_temperature;BME280_humidity;BME280_pressure;Samples;Min_cycle;Max_cycle;Signal;HPM_P1;HPM_P2
2023/07/15 00:00:41;;;;;;;3.30;2.00;;;23.00;6.00;;;;;;4976058;28;20443;-85
2023/07/15 00:03:08;;;;;;;4.57;2.67;;;22.90;6.60;;;;;;4976176;28;20214;-84
2023/07/15 00:05:37;;;;;;;3.70;2.23;;;22.80;6.80;;;;;;4974414;28;20450;-84
2023/07/15 00:08:03;;;;;;;4.80;2.23;;;22.70;7.40;;;;;;4975951;28;20441;-84
2023/07/15 00:10:29;;;;;;;6.47;2.20;;;22.70;7.40;;;;;;4977158;28;20873;-83
2023/07/15 00:12:55;;;;;;;5.40;2.27;;;22.60;7.60;;;;;;4977477;28;20541;-84
2023/07/15 00:15:21;;;;;;;6.83;2.60;;;22.60;8.40;;;;;;4991867;28;20440;-84
2023/07/15 00:17:47;;;;;;;3.87;2.20;;;22.50;9.20;;;;;;4975654;28;20183;-84
2023/07/15 00:20:15;;;;;;;7.67;2.60;;;22.50;9.00;;;;;;4974982;28;20453;-83
2023/07/15 00:22:43;;;;;;;6.63;2.40;;;22.50;9.40;;;;;;4969252;28;20221;-84
2023/07/15 00:25:13;;;;;;;5.30;3.07;;;22.40;9.40;;;;;;4989641;28;21023;-84
2023/07/15 00:27:40;;;;;;;4.50;2.70;;;22.40;9.60;;;;;;4976566;28;20510;-84
2023/07/15 00:30:08;;;;;;;5.23;2.87;;;22.30;10.50;;;;;;4977782;28;20430;-85
2023/07/15 00:32:33;;;;;;;8.17;2.83;;;22.30;10.60;;;;;;4985205;28;20461;-84
2023/07/15 00:34:59;;;;;;;5.70;3.00;;;22.30;11.50;;;;;;4980541;28;20460;-84
2023/07/15 00:37:24;;;;;;;3.57;2.30;;;22.30;10.80;;;;;;4980094;28;20186;-85
2023/07/15 00:39:50;;;;;;;4.27;3.20;;;22.30;11.20;;;;;;4972584;28;20209;-85
2023/07/15 00:42:38;;;;;;;3.50;1.93;;;22.30;11.40;;;;;;4980747;28;20222;-84
2023/07/15 00:45:03;;;;;;;4.67;2.90;;;22.30;11.80;;;;;;4960369;28;20218;-84
2023/07/15 00:47:45;;;;;;;4.63;2.60;;;22.30;12.50;;;;;;4977966;28;20441;-84
2023/07/15 00:50:12;;;;;;;6.20;2.67;;;22.30;12.60;;;;;;4981279;28;20546;-86
2023/07/15 00:52:38;;;;;;;6.00;2.67;;;22.20;13.20;;;;;;4991431;28;20498;-85
2023/07/15 00:55:04;;;;;;;4.73;2.43;;;22.20;13.20;;;;;;4982180;28;20448;-85
2023/07/15 00:57:30;;;;;;;3.97;2.77;;;22.20;13.40;;;;;;4977383;28;20457;-84
2023/07/15 00:59:58;;;;;;;4.37;2.80;;;22.20;13.80;;;;;;4985647;28;20434;-84
2023/07/15 01:02:25;;;;;;;4.00;2.50;;;22.20;14.30;;;;;;4963718;28;20481;-84
2023/07/15 01:04:50;;;;;;;3.13;2.40;;;22.20;14.60;;;;;;4991124;28;20500;-84
2023/07/15 01:07:16;;;;;;;3.70;2.70;;;22.20;14.60;;;;;;4977908;28;20532;-84
2023/07/15 01:09:41;;;;;;;6.10;2.87;;;22.20;14.90;;;;;;4989377;28;20195;-84
2023/07/15 01:12:07;;;;;;;3.80;2.50;;;22.20;15.10;;;;;;4986253;28;20206;-84
2023/07/15 01:14:33;;;;;;;4.60;2.77;;;22.10;16.00;;;;;;4977752;28;20443;-83
2023/07/15 01:16:58;;;;;;;6.27;2.77;;;22.10;16.40;;;;;;4980737;28;20454;-85
2023/07/15 01:19:24;;;;;;;5.70;2.47;;;22.10;16.20;;;;;;4980581;28;20190;-86
2023/07/15 01:21:50;;;;;;;5.70;2.40;;;22.10;16.60;;;;;;4979509;28;20601;-85
2023/07/15 01:24:21;;;;;;;5.17;2.80;;;22.10;17.20;;;;;;4981481;28;20184;-85
2023/07/15 01:26:47;;;;;;;6.77;2.50;;;22.10;17.50;;;;;;4994840;28;20440;-84
2023/07/15 01:29:13;;;;;;;7.93;2.33;;;22.00;17.70;;;;;;4979657;28;20436;-85
2023/07/15 01:31:39;;;;;;;4.23;2.83;;;22.00;18.40;;;;;;4977469;28;20441;-85
2023/07/15 01:34:05;;;;;;;6.63;2.17;;;22.00;19.50;;;;;;4991568;28;20436;-84
2023/07/15 01:36:30;;;;;;;2.90;2.40;;;21.90;19.20;;;;;;4980512;28;20441;-85
2023/07/15 01:38:56;;;;;;;3.60;2.10;;;21.90;20.10;;;;;;4996552;28;20184;-85
2023/07/15 01:41:24;;;;;;;10.13;2.60;;;21.90;19.70;;;;;;4993560;28;20182;-86
2023/07/15 01:43:50;;;;;;;3.57;2.57;;;21.90;20.40;;;;;;4983956;28;20213;-84
2023/07/15 01:46:15;;;;;;;7.17;2.70;;;21.80;20.90;;;;;;4980038;28;20513;-85
2023/07/15 01:48:41;;;;;;;2.70;2.00;;;21.80;20.90;;;;;;4980371;28;20745;-86
2023/07/15 01:51:06;;;;;;;4.20;1.80;;;21.80;21.40;;;;;;4976717;28;20253;-84
2023/07/15 01:53:32;;;;;;;3.97;2.40;;;21.80;21.60;;;;;;4977189;28;20214;-86
2023/07/15 01:55:57;;;;;;;2.73;1.83;;;21.80;22.30;;;;;;4974904;28;20184;-85
2023/07/15 01:58:23;;;;;;;4.43;2.13;;;21.70;23.10;;;;;;5001887;28;20200;-84
2023/07/15 02:00:48;;;;;;;4.53;2.57;;;21.70;23.20;;;;;;4976343;28;20203;-84
2023/07/15 02:03:15;;;;;;;4.73;2.60;;;21.70;23.20;;;;;;4972776;28;20235;-85
2023/07/15 02:05:40;;;;;;;3.90;2.17;;;21.70;23.40;;;;;;4978474;28;20200;-85
2023/07/15 02:08:06;;;;;;;3.43;1.73;;;21.70;23.90;;;;;;4994938;28;20478;-84
2023/07/15 02:10:31;;;;;;;4.40;2.40;;;21.70;24.30;;;;;;4977523;28;20696;-84
2023/07/15 02:12:57;;;;;;;4.00;2.23;;;21.70;24.20;;;;;;4972819;28;20326;-85
2023/07/15 02:15:22;;;;;;;3.97;2.23;;;21.70;24.90;;;;;;4978730;28;20562;-83
2023/07/15 02:17:48;;;;;;;3.30;2.13;;;21.70;25.00;;;;;;4978756;28;20233;-84
2023/07/15 02:20:13;;;;;;;3.67;2.47;;;21.70;25.40;;;;;;4979134;28;20188;-84
2023/07/15 02:22:40;;;;;;;3.40;1.90;;;21.60;26.40;;;;;;4980450;28;20224;-85
2023/07/15 02:25:06;;;;;;;3.47;2.00;;;21.60;26.40;;;;;;4994510;28;20213;-84
2023/07/15 02:27:32;;;;;;;5.37;2.40;;;21.60;26.30;;;;;;4975470;28;20469;-85
2023/07/15 02:29:57;;;;;;;3.00;2.20;;;21.60;26.60;;;;;;4978885;28;20449;-84
2023/07/15 02:32:41;;;;;;;8.27;2.90;;;21.60;26.90;;;;;;4971965;28;20212;-84
2023/07/15 02:35:12;;;;;;;4.10;1.90;;;21.60;27.10;;;;;;4985357;28;20691;-83
2023/07/15 02:37:39;;;;;;;2.80;2.07;;;21.60;27.30;;;;;;4978043;28;20444;-84
2023/07/15 02:40:06;;;;;;;2.13;1.63;;;21.60;27.10;;;;;;4978357;28;20432;-84
2023/07/15 02:42:33;;;;;;;4.07;2.73;;;21.60;27.10;;;;;;4975357;28;20487;-85
2023/07/15 02:45:00;;;;;;;4.70;2.20;;;21.50;28.10;;;;;;4973832;28;20435;-85
2023/07/15 02:47:26;;;;;;;8.00;2.30;;;21.60;27.60;;;;;;4979962;28;20448;-83
2023/07/15 02:49:51;;;;;;;3.90;2.73;;;21.60;27.90;;;;;;4963757;28;20810;-85
2023/07/15 02:52:17;;;;;;;2.80;2.00;;;21.50;28.60;;;;;;4970271;28;20272;-84
2023/07/15 02:54:43;;;;;;;5.07;2.23;;;21.50;28.70;;;;;;4975725;28;20566;-84
2023/07/15 02:57:08;;;;;;;3.90;2.50;;;21.50;28.30;;;;;;4999522;28;20448;-84
2023/07/15 02:59:34;;;;;;;5.27;2.17;;;21.40;28.90;;;;;;4986062;28;20693;-85
2023/07/15 03:02:00;;;;;;;8.17;2.17;;;21.40;29.40;;;;;;4967224;28;20212;-84
2023/07/15 03:04:26;;;;;;;6.03;2.00;;;21.40;29.80;;;;;;4976385;28;20428;-84
2023/07/15 03:06:55;;;;;;;5.93;1.97;;;21.30;30.30;;;;;;4990492;28;20178;-85
2023/07/15 03:09:21;;;;;;;3.17;1.97;;;21.30;30.40;;;;;;4973300;28;20192;-84
2023/07/15 03:11:46;;;;;;;2.80;2.03;;;21.30;31.40;;;;;;4976406;28;20459;-84
2023/07/15 03:14:12;;;;;;;6.63;2.60;;;21.20;31.60;;;;;;4976782;28;20941;-85
2023/07/15 03:16:37;;;;;;;2.63;1.90;;;21.20;32.40;;;;;;4975819;28;20189;-85
2023/07/15 03:19:03;;;;;;;6.07;2.70;;;21.20;32.70;;;;;;4965398;28;20195;-84
2023/07/15 03:21:28;;;;;;;7.07;2.20;;;21.20;33.80;;;;;;4987079;28;20199;-84
2023/07/15 03:23:54;;;;;;;4.43;2.57;;;21.20;34.10;;;;;;4976388;28;20181;-85
2023/07/15 03:26:19;;;;;;;4.03;2.00;;;21.20;33.90;;;;;;4998969;28;20186;-84
2023/07/15 03:28:45;;;;;;;5.50;2.27;;;21.20;34.40;;;;;;4967351;28;20219;-84
2023/07/15 03:31:11;;;;;;;4.83;2.30;;;21.30;35.70;;;;;;4967229;28;20181;-85
2023/07/15 03:33:37;;;;;;;6.77;2.40;;;21.30;35.80;;;;;;4972562;28;20464;-86
2023/07/15 03:36:03;;;;;;;4.23;2.40;;;21.20;36.10;;;;;;4975060;28;20287;-84
2023/07/15 03:38:29;;;;;;;4.87;1.97;;;21.20;36.90;;;;;;4973661;28;20195;-84
2023/07/15 03:40:55;;;;;;;3.23;2.10;;;21.20;36.80;;;;;;4974962;28;20444;-84
2023/07/15 03:43:20;;;;;;;6.43;2.20;;;21.10;37.00;;;;;;4990950;28;20216;-85
2023/07/15 03:45:46;;;;;;;4.80;2.23;;;21.10;38.20;;;;;;4976520;28;20288;-84
2023/07/15 03:48:11;;;;;;;5.90;2.30;;;21.10;38.30;;;;;;4972109;28;20259;-85
2023/07/15 03:50:37;;;;;;;8.93;2.50;;;21.10;39.00;;;;;;4975194;28;20188;-84
2023/07/15 03:53:03;;;;;;;4.93;2.07;;;21.10;39.20;;;;;;4975734;28;20229;-84
2023/07/15 03:55:29;;;;;;;6.20;2.20;;;21.10;40.20;;;;;;4973475;28;20188;-84
2023/07/15 03:57:55;;;;;;;4.33;2.27;;;21.10;40.70;;;;;;4974912;28;20684;-84
2023/07/15 04:00:21;;;;;;;3.10;2.30;;;21.10;41.60;;;;;;4989068;28;20450;-84
2023/07/15 04:02:49;;;;;;;3.57;2.23;;;21.20;42.10;;;;;;4961990;28;20209;-84
2023/07/15 04:05:15;;;;;;;9.00;2.43;;;21.20;42.50;;;;;;4976320;28;20467;-85
2023/07/15 04:07:40;;;;;;;4.87;2.33;;;21.20;42.00;;;;;;4979208;28;20427;-85
2023/07/15 04:10:06;;;;;;;2.87;2.37;;;21.30;41.80;;;;;;4974538;28;20234;-84
2023/07/15 04:12:32;;;;;;;4.60;2.20;;;21.30;41.80;;;;;;4977788;28;20210;-84
2023/07/15 04:14:57;;;;;;;3.50;2.37;;;21.30;42.10;;;;;;4979388;28;20440;-84
2023/07/15 04:17:23;;;;;;;5.33;2.90;;;21.30;42.40;;;;;;4979335;28;20188;-84
2023/07/15 04:19:48;;;;;;;7.07;2.27;;;21.40;42.70;;;;;;4978356;28;20196;-84
2023/07/15 04:22:14;;;;;;;3.50;2.57;;;21.40;55.20;;;;;;4974576;28;20249;-84
2023/07/15 04:24:39;;;;;;;4.03;2.30;;;21.50;43.70;;;;;;4985519;28;20196;-85
2023/07/15 04:27:05;;;;;;;4.50;2.13;;;21.50;45.80;;;;;;4978083;28;20192;-84
2023/07/15 04:29:31;;;;;;;5.57;2.90;;;21.50;44.70;;;;;;4977709;28;20659;-83
2023/07/15 04:31:57;;;;;;;4.10;2.83;;;21.60;45.20;;;;;;4977506;28;20210;-84
2023/07/15 04:34:23;;;;;;;7.47;2.57;;;21.60;45.70;;;;;;4987524;28;20527;-84
2023/07/15 04:36:48;;;;;;;3.50;2.20;;;21.70;45.20;;;;;;4973055;28;20484;-86
2023/07/15 04:39:14;;;;;;;7.40;2.40;;;21.80;46.00;;;;;;4978455;28;20202;-85
2023/07/15 04:41:39;;;;;;;3.60;2.40;;;21.90;45.20;;;;;;4978673;28;20640;-84
2023/07/15 04:44:05;;;;;;;5.47;2.10;;;22.00;45.80;;;;;;4973460;28;20183;-83
2023/07/15 04:46:31;;;;;;;5.27;2.33;;;22.10;45.90;;;;;;4975172;28;20180;-84
2023/07/15 04:48:57;;;;;;;4.40;1.70;;;22.20;45.40;;;;;;4989471;28;20490;-84
2023/07/15 04:51:22;;;;;;;6.17;2.50;;;22.40;45.00;;;;;;5002601;28;20268;-84
2023/07/15 04:53:48;;;;;;;3.00;2.27;;;22.50;44.60;;;;;;4971804;28;20225;-84
2023/07/15 04:56:13;;;;;;;3.93;2.20;;;22.60;45.10;;;;;;4973631;28;20264;-85
2023/07/15 04:58:39;;;;;;;6.03;2.33;;;22.70;45.10;;;;;;4979408;28;20696;-84
2023/07/15 05:01:04;;;;;;;8.70;3.90;;;22.80;45.10;;;;;;4970755;28;20227;-85
2023/07/15 05:03:32;;;;;;;3.97;1.73;;;22.80;44.90;;;;;;4979803;28;20226;-84
2023/07/15 05:06:06;;;;;;;8.33;2.50;;;22.90;44.30;;;;;;4973614;28;20564;-85
2023/07/15 05:09:16;;;;;;;4.53;2.10;;;22.90;44.80;;;;;;4979548;28;20517;-82
2023/07/15 05:11:42;;;;;;;12.43;2.53;;;23.00;45.20;;;;;;4932911;28;20423;-83
2023/07/15 05:14:07;;;;;;;6.03;2.47;;;23.20;46.10;;;;;;4981874;28;20837;-82
2023/07/15 05:16:33;;;;;;;3.60;2.00;;;23.20;46.40;;;;;;4981145;28;20187;-82
2023/07/15 05:18:58;;;;;;;3.80;2.07;;;23.30;46.30;;;;;;4981418;28;20196;-83
2023/07/15 05:21:24;;;;;;;3.63;2.20;;;23.40;46.40;;;;;;4993391;28;20901;-83
2023/07/15 05:23:49;;;;;;;5.47;2.10;;;23.60;46.20;;;;;;4981361;28;20704;-84
2023/07/15 05:26:15;;;;;;;3.03;2.20;;;23.70;45.80;;;;;;4975643;28;20189;-84
2023/07/15 05:28:40;;;;;;;5.83;2.13;;;23.90;45.90;;;;;;4976679;28;20211;-82
2023/07/15 05:31:06;;;;;;;5.60;2.00;;;24.00;46.00;;;;;;4979735;28;20189;-83
2023/07/15 05:33:31;;;;;;;5.10;2.27;;;24.10;45.50;;;;;;4981868;28;20221;-84
2023/07/15 05:35:57;;;;;;;3.67;2.23;;;24.20;47.10;;;;;;4979843;28;20194;-83
2023/07/15 05:38:25;;;;;;;5.60;2.40;;;24.30;46.30;;;;;;4978194;28;20269;-83
2023/07/15 05:40:51;;;;;;;3.30;1.70;;;24.40;60.30;;;;;;4981871;28;20433;-83
2023/07/15 05:43:18;;;;;;;7.03;2.30;;;24.50;47.40;;;;;;4979119;28;20539;-83
2023/07/15 05:45:44;;;;;;;4.70;2.17;;;24.60;46.50;;;;;;4974235;28;20795;-83
2023/07/15 05:48:09;;;;;;;2.90;2.00;;;24.70;46.00;;;;;;4980704;28;20427;-84
2023/07/15 05:50:37;;;;;;;3.30;2.00;;;24.80;44.60;;;;;;4975199;28;20290;-83
2023/07/15 05:53:03;;;;;;;2.60;1.60;;;25.00;44.80;;;;;;4980898;28;20230;-83
2023/07/15 05:55:28;;;;;;;4.73;2.30;;;25.10;44.90;;;;;;4994770;28;20454;-84
2023/07/15 05:57:54;;;;;;;2.40;1.80;;;25.30;45.00;;;;;;4981839;28;20420;-84
2023/07/15 06:00:23;;;;;;;2.97;1.83;;;25.60;44.90;;;;;;4973258;28;20183;-84
2023/07/15 06:02:48;;;;;;;2.97;2.10;;;25.90;45.70;;;;;;4980700;28;20223;-84
2023/07/15 06:05:14;;;;;;;2.80;1.80;;;26.30;45.50;;;;;;4980930;28;20435;-84
2023/07/15 06:07:39;;;;;;;10.37;2.50;;;27.00;46.00;;;;;;4979264;28;20194;-84
2023/07/15 06:10:05;;;;;;;2.10;1.60;;;27.80;44.50;;;;;;4980604;28;20268;-84
2023/07/15 06:12:31;;;;;;;3.50;1.87;;;29.50;46.90;;;;;;4976189;28;20215;-84
2023/07/15 06:14:56;;;;;;;2.30;1.50;;;31.10;46.80;;;;;;4976079;28;20195;-84
2023/07/15 06:17:22;;;;;;;5.47;1.63;;;32.10;43.60;;;;;;4978070;28;20184;-85
2023/07/15 06:19:47;;;;;;;4.73;1.87;;;34.80;43.20;;;;;;4981644;28;20210;-83
2023/07/15 06:22:13;;;;;;;4.10;1.37;;;37.40;38.40;;;;;;4981645;28;20648;-83
2023/07/15 06:24:39;;;;;;;3.63;1.30;;;39.40;29.40;;;;;;4980360;28;20222;-83
2023/07/15 06:27:05;;;;;;;5.90;2.30;;;40.50;22.30;;;;;;4985517;28;20203;-85
2023/07/15 06:29:31;;;;;;;5.17;1.70;;;42.70;17.60;;;;;;4980765;28;20184;-83
2023/07/15 06:31:59;;;;;;;2.53;1.60;;;44.50;12.70;;;;;;4982581;28;20476;-84
2023/07/15 06:34:25;;;;;;;2.73;1.27;;;43.40;6.30;;;;;;4994219;28;20179;-83
2023/07/15 06:36:50;;;;;;;2.70;1.37;;;44.70;4.20;;;;;;4981762;28;20434;-83
2023/07/15 06:39:17;;;;;;;5.87;1.80;;;42.50;1.00;;;;;;4995975;28;20184;-83
2023/07/15 06:41:42;;;;;;;2.73;1.30;;;41.20;1.00;;;;;;4978345;28;20242;-83
2023/07/15 06:44:08;;;;;;;7.47;2.10;;;42.10;1.00;;;;;;4989800;28;20423;-84
2023/07/15 06:46:33;;;;;;;3.47;1.50;;;41.10;1.00;;;;;;4977807;28;20361;-83
2023/07/15 06:48:59;;;;;;;4.17;1.60;;;39.30;1.00;;;;;;4978780;28;20195;-83
2023/07/15 06:51:24;;;;;;;6.27;1.60;;;37.50;1.00;;;;;;4974328;28;20741;-83
2023/07/15 06:53:50;;;;;;;5.33;1.57;;;35.90;1.00;;;;;;4977660;28;20219;-83
2023/07/15 06:56:15;;;;;;;3.50;1.73;;;34.40;1.00;;;;;;4979182;28;20188;-82
2023/07/15 06:58:43;;;;;;;2.00;1.60;;;33.00;1.00;;;;;;4999688;28;20197;-83
2023/07/15 07:01:09;;;;;;;1.93;1.60;;;31.90;1.00;;;;;;4978147;28;20196;-82
2023/07/15 07:03:34;;;;;;;5.80;1.83;;;31.00;1.00;;;;;;4979447;28;20534;-83
2023/07/15 07:06:01;;;;;;;5.80;1.50;;;30.30;1.00;;;;;;4976130;28;22020;-83
2023/07/15 07:08:27;;;;;;;5.40;1.50;;;29.70;1.00;;;;;;4980216;28;20181;-83
2023/07/15 07:10:53;;;;;;;4.63;1.97;;;29.20;1.00;;;;;;5004321;28;20439;-85
2023/07/15 07:13:19;;;;;;;2.30;1.77;;;28.90;1.00;;;;;;4979173;28;20694;-83
2023/07/15 07:15:45;;;;;;;4.40;1.83;;;28.70;1.00;;;;;;4978497;28;20467;-83
2023/07/15 07:18:11;;;;;;;4.50;1.80;;;28.40;1.00;;;;;;4979627;28;20454;-83
2023/07/15 07:20:38;;;;;;;2.97;1.70;;;28.30;1.00;;;;;;4975292;28;20240;-81
2023/07/15 07:23:03;;;;;;;3.97;1.70;;;28.10;1.00;;;;;;4975785;28;20455;-83
2023/07/15 07:25:29;;;;;;;3.63;1.43;;;28.10;1.00;;;;;;4978544;28;20446;-83
2023/07/15 07:27:54;;;;;;;3.90;2.30;;;28.20;1.00;;;;;;4979041;28;20189;-83
2023/07/15 07:30:32;;;;;;;4.27;1.77;;;29.10;1.50;;;;;;4976576;28;20191;-84
2023/07/15 07:32:58;;;;;;;2.77;1.73;;;36.20;13.70;;;;;;4991261;28;20250;-83
2023/07/15 07:35:23;;;;;;;2.17;1.30;;;36.00;7.60;;;;;;4978787;28;20447;-84
2023/07/15 07:37:49;;;;;;;2.90;2.07;;;34.50;1.90;;;;;;4975596;28;20188;-83
2023/07/15 07:40:15;;;;;;;3.20;1.60;;;33.10;1.00;;;;;;4993877;28;20185;-83
2023/07/15 07:42:40;;;;;;;5.23;1.50;;;32.20;1.00;;;;;;4977822;28;20212;-83
2023/07/15 07:45:16;;;;;;;8.83;2.27;;;31.50;1.00;;;;;;4974224;28;20213;-83
2023/07/15 07:47:42;;;;;;;7.53;1.90;;;31.20;8.30;;;;;;4980637;28;20312;-84
2023/07/15 07:50:08;;;;;;;2.60;1.80;;;32.30;2.80;;;;;;4977687;28;20437;-83
2023/07/15 07:52:33;;;;;;;4.43;1.97;;;34.00;6.00;;;;;;4998262;28;20211;-83
2023/07/15 07:54:59;;;;;;;2.67;1.80;;;38.30;10.90;;;;;;4997292;28;20657;-83
2023/07/15 07:57:27;;;;;;;4.73;2.00;;;37.80;3.90;;;;;;4968286;28;20191;-85
2023/07/15 07:59:52;;;;;;;2.70;1.73;;;37.20;1.50;;;;;;4991058;28;20191;-84
2023/07/15 08:02:18;;;;;;;1.67;1.50;;;36.40;1.00;;;;;;4992066;28;20467;-84
2023/07/15 08:04:44;;;;;;;3.33;1.60;;;36.70;1.00;;;;;;4975356;28;20239;-84
2023/07/15 08:07:10;;;;;;;3.77;1.30;;;37.50;1.00;;;;;;4994607;28;20192;-85
2023/07/15 08:09:35;;;;;;;4.40;1.70;;;36.50;1.00;;;;;;4995839;28;20213;-84
2023/07/15 08:12:01;;;;;;;2.07;1.37;;;35.50;1.00;;;;;;4974615;28;20498;-85
2023/07/15 08:14:26;;;;;;;3.43;1.67;;;34.50;1.00;;;;;;4969243;28;20632;-85
2023/07/15 08:16:51;;;;;;;2.27;1.30;;;33.80;1.00;;;;;;4976551;28;20180;-85
2023/07/15 08:19:17;;;;;;;5.33;1.80;;;33.10;1.00;;;;;;4976149;28;20184;-85
2023/07/15 08:21:42;;;;;;;3.50;1.80;;;32.30;1.00;;;;;;4976698;28;20199;-85
2023/07/15 08:24:08;;;;;;;2.57;1.67;;;31.70;1.00;;;;;;4976309;28;20192;-85
2023/07/15 08:26:34;;;;;;;4.87;1.40;;;31.10;1.00;;;;;;4978788;28;20295;-84
2023/07/15 08:29:02;;;;;;;3.27;1.83;;;30.60;1.00;;;;;;4976959;28;20207;-83
2023/07/15 08:31:28;;;;;;;3.07;1.37;;;30.10;1.00;;;;;;4976231;28;20296;-85
2023/07/15 08:33:54;;;;;;;2.13;1.50;;;29.70;1.00;;;;;;4979406;28;20648;-84
2023/07/15 08:36:20;;;;;;;2.37;1.03;;;29.20;1.40;;;;;;4973811;28;20432;-84
2023/07/15 08:38:47;;;;;;;3.70;1.40;;;28.80;3.50;;;;;;4972082;28;20447;-84
2023/07/15 08:41:12;;;;;;;2.10;1.33;;;28.50;4.70;;;;;;4975526;28;20758;-84
2023/07/15 08:43:45;;;;;;;3.60;1.13;;;28.10;6.70;;;;;;4974785;28;20491;-85
2023/07/15 08:46:28;;;;;;;3.60;1.30;;;27.80;8.40;;;;;;4975513;28;20195;-83
2023/07/15 08:48:55;;;;;;;2.50;1.20;;;27.60;11.40;;;;;;4975982;28;20435;-84
2023/07/15 08:51:24;;;;;;;2.00;1.10;;;27.40;13.70;;;;;;4976144;28;20443;-84
2023/07/15 08:53:53;;;;;;;3.27;1.37;;;27.30;16.70;;;;;;4993158;28;20475;-84
2023/07/15 08:56:20;;;;;;;3.37;1.50;;;27.10;19.90;;;;;;4980772;28;21028;-84
2023/07/15 08:58:48;;;;;;;2.63;1.20;;;26.80;23.90;;;;;;4977184;28;20436;-85
2023/07/15 09:01:14;;;;;;;1.73;1.23;;;26.70;27.50;;;;;;4981493;28;20450;-84
2023/07/15 09:03:39;;;;;;;1.70;1.30;;;26.50;30.80;;;;;;4980752;28;20494;-84
2023/07/15 09:06:08;;;;;;;2.13;1.37;;;26.40;34.70;;;;;;4983805;28;20450;-85
2023/07/15 09:08:33;;;;;;;12.03;1.50;;;26.20;40.10;;;;;;4982840;28;20207;-84
2023/07/15 09:11:05;;;;;;;7.03;1.63;;;26.00;46.20;;;;;;4980568;28;20486;-84
2023/07/15 09:13:38;;;;;;;2.40;1.60;;;25.90;53.40;;;;;;4979860;28;20220;-85
2023/07/15 09:16:04;;;;;;;3.00;1.27;;;25.80;63.30;;;;;;4982111;28;20474;-84
2023/07/15 09:18:29;;;;;;;2.20;1.40;;;25.80;75.90;;;;;;4982234;28;20436;-84
2023/07/15 09:21:15;;;;;;;2.73;1.50;;;25.80;87.50;;;;;;4980464;28;20560;-84
2023/07/15 09:23:51;;;;;;;1.83;1.10;;;25.80;98.20;;;;;;4979780;28;20282;-84
2023/07/15 09:26:18;;;;;;;1.73;1.13;;;25.80;99.90;;;;;;4981120;28;20530;-84
2023/07/15 09:28:46;;;;;;;3.87;1.40;;;25.70;99.90;;;;;;4971553;28;20490;-84
2023/07/15 09:31:25;;;;;;;2.53;1.40;;;25.60;99.90;;;;;;4978105;28;20812;-84
2023/07/15 09:33:51;;;;;;;4.43;1.20;;;25.50;99.90;;;;;;4973618;28;20479;-84
2023/07/15 09:36:31;;;;;;;2.70;1.70;;;25.40;99.90;;;;;;4975752;28;20445;-84
2023/07/15 09:39:02;;;;;;;2.70;1.53;;;25.30;99.90;;;;;;4975052;28;20286;-84
2023/07/15 09:41:30;;;;;;;2.53;1.40;;;25.30;99.90;;;;;;4993916;28;20529;-84
2023/07/15 09:43:56;;;;;;;2.13;1.60;;;25.30;99.90;;;;;;4975744;28;20450;-85
2023/07/15 09:46:22;;;;;;;3.73;1.57;;;25.30;99.90;;;;;;4975201;28;20534;-84
2023/07/15 09:48:50;;;;;;;1.80;1.60;;;25.40;99.90;;;;;;4978718;28;20183;-84
2023/07/15 09:51:17;;;;;;;9.27;1.70;;;25.50;99.90;;;;;;4977347;28;20432;-85
2023/07/15 09:53:50;;;;;;;4.00;1.93;;;25.60;99.90;;;;;;4975332;28;20570;-84
2023/07/15 09:56:31;;;;;;;3.47;2.10;;;25.70;99.90;;;;;;4977253;28;20432;-85
2023/07/15 09:59:02;;;;;;;2.43;1.53;;;25.80;99.90;;;;;;4973546;28;20463;-84
2023/07/15 10:01:44;;;;;;;4.53;1.60;;;26.00;99.90;;;;;;4976617;28;20424;-84
2023/07/15 10:04:25;;;;;;;2.77;1.43;;;25.90;99.90;;;;;;4975909;28;20467;-84
2023/07/15 10:06:51;;;;;;;1.90;1.60;;;25.90;99.90;;;;;;4993037;28;20442;-84
2023/07/15 10:09:18;;;;;;;2.50;1.77;;;26.40;99.90;;;;;;4981931;28;20447;-84
2023/07/15 10:11:44;;;;;;;3.40;1.57;;;27.70;99.90;;;;;;4994639;28;20439;-85
2023/07/15 10:14:10;;;;;;;4.27;2.07;;;28.10;99.90;;;;;;4993136;28;20523;-85
2023/07/15 10:16:36;;;;;;;3.00;1.77;;;28.30;99.90;;;;;;4979494;28;20486;-85
2023/07/15 10:19:05;;;;;;;1.77;1.57;;;28.50;99.90;;;;;;4994556;28;21212;-85
2023/07/15 10:21:31;;;;;;;2.53;1.80;;;28.60;99.90;;;;;;4979706;28;20427;-84
2023/07/15 10:24:08;;;;;;;2.47;1.67;;;28.60;99.90;;;;;;4977122;28;20931;-85
2023/07/15 10:26:34;;;;;;;5.23;2.00;;;28.70;99.90;;;;;;4972896;28;20192;-84
2023/07/15 10:29:04;;;;;;;3.00;2.00;;;29.20;99.90;;;;;;4971882;28;20447;-85
2023/07/15 10:31:30;;;;;;;3.80;2.07;;;29.90;99.90;;;;;;4974883;28;20538;-85
2023/07/15 10:34:03;;;;;;;3.00;1.43;;;30.50;99.60;;;;;;4975626;28;20442;-84
2023/07/15 10:36:41;;;;;;;2.70;1.60;;;30.40;96.40;;;;;;4974491;28;20187;-85
2023/07/15 10:39:13;;;;;;;3.77;2.10;;;30.70;94.10;;;;;;4978039;28;20888;-85
2023/07/15 10:41:47;;;;;;;2.23;1.40;;;30.40;92.20;;;;;;4977586;28;20448;-85
2023/07/15 10:44:39;;;;;;;2.73;1.73;;;30.10;91.00;;;;;;4977033;28;20459;-85
2023/07/15 10:47:43;;;;;;;1.67;1.37;;;30.20;91.30;;;;;;4992013;28;20626;-84
2023/07/15 10:50:21;;;;;;;2.30;1.90;;;30.90;90.30;;;;;;4976097;28;20466;-85
2023/07/15 10:56:06;;;;;;;1.60;1.50;;;30.90;84.70;;;;;;4978268;28;20455;-84
2023/07/15 10:58:45;;;;;;;3.37;1.87;;;31.20;80.50;;;;;;4990848;28;20438;-84
2023/07/15 11:01:27;;;;;;;3.73;1.60;;;31.40;79.30;;;;;;4976298;28;20443;-85
2023/07/15 11:04:23;;;;;;;2.40;1.80;;;31.10;75.50;;;;;;4981289;28;20521;-86
2023/07/15 11:06:55;;;;;;;2.53;1.33;;;31.00;73.40;;;;;;4976327;28;20440;-86
2023/07/15 11:09:36;;;;;;;3.30;1.20;;;30.90;73.00;;;;;;4978314;28;20436;-84
2023/07/15 11:12:08;;;;;;;3.20;2.03;;;31.10;72.10;;;;;;4988795;28;20624;-83
2023/07/15 11:15:21;;;;;;;2.23;1.37;;;32.20;72.70;;;;;;4992133;28;20447;-85
2023/07/15 11:17:58;;;;;;;5.10;1.60;;;32.90;69.20;;;;;;4883340;29;20530;-84
2023/07/15 11:20:37;;;;;;;3.13;1.50;;;32.80;64.70;;;;;;4923119;28;20439;-85
2023/07/15 11:23:06;;;;;;;1.97;1.40;;;33.00;62.30;;;;;;4979311;28;20459;-86
2023/07/15 11:25:44;;;;;;;2.70;1.57;;;32.70;58.90;;;;;;4990794;28;20444;-85
2023/07/15 11:28:39;;;;;;;2.60;1.97;;;32.90;58.10;;;;;;4992133;28;20439;-85
2023/07/15 11:31:33;;;;;;;1.90;1.43;;;32.80;56.20;;;;;;4981264;28;20449;-84
2023/07/15 11:34:20;;;;;;;1.80;1.40;;;32.50;54.80;;;;;;5001891;28;20440;-84
2023/07/15 11:37:13;;;;;;;5.20;1.60;;;31.90;54.20;;;;;;4985587;28;20460;-84
2023/07/15 11:39:49;;;;;;;3.27;1.50;;;31.70;54.10;;;;;;4974108;28;20941;-84
2023/07/15 11:48:55;;;;;;;;;;;;;;;;;;;;;
2023/07/15 11:51:29;;;;;;;3.10;1.67;;;30.50;54.40;;;;;;4977696;28;20860;-85
2023/07/15 11:54:35;;;;;;;2.00;1.43;;;30.20;56.00;;;;;;4992034;28;20533;-84
2023/07/15 11:57:06;;;;;;;4.70;1.67;;;30.20;57.00;;;;;;4865728;29;20451;-84
2023/07/15 11:59:35;;;;;;;2.00;1.67;;;30.00;57.40;;;;;;4960832;28;20450;-85
2023/07/15 12:02:09;;;;;;;3.67;1.90;;;29.90;58.10;;;;;;4980410;28;20451;-85
2023/07/15 12:05:03;;;;;;;2.17;1.40;;;29.90;58.10;;;;;;4975037;28;20559;-85
2023/07/15 12:08:20;;;;;;;3.67;1.90;;;29.90;58.90;;;;;;4978923;28;20455;-85
2023/07/15 12:11:01;;;;;;;2.83;1.93;;;30.50;60.10;;;;;;4990670;28;20427;-84
2023/07/15 12:13:27;;;;;;;1.90;1.50;;;30.80;72.80;;;;;;4992540;28;20511;-85
2023/07/15 12:15:59;;;;;;;2.90;1.60;;;31.00;61.50;;;;;;4979166;28;20465;-84
2023/07/15 12:18:34;;;;;;;4.13;1.90;;;31.10;61.30;;;;;;4991065;28;20454;-84
2023/07/15 12:20:59;;;;;;;2.20;1.60;;;31.40;62.80;;;;;;4980464;28;21404;-84
2023/07/15 12:23:33;;;;;;;5.10;1.93;;;31.60;62.40;;;;;;4977574;28;20522;-85
2023/07/15 12:25:59;;;;;;;3.40;1.60;;;31.80;62.20;;;;;;4980644;28;20219;-84
2023/07/15 12:28:27;;;;;;;1.60;1.50;;;31.70;59.40;;;;;;4981399;28;20435;-85
2023/07/15 12:31:46;;;;;;;1.70;1.40;;;32.40;61.30;;;;;;4982036;28;20200;-84
2023/07/15 12:34:12;;;;;;;1.60;1.20;;;32.60;59.10;;;;;;4981736;28;20472;-85
2023/07/15 12:36:41;;;;;;;2.43;1.67;;;33.00;59.10;;;;;;4983363;28;20434;-85
2023/07/15 12:39:20;;;;;;;1.97;1.50;;;33.40;56.60;;;;;;4981513;28;20251;-85
2023/07/15 12:42:16;;;;;;;2.07;1.87;;;33.60;55.10;;;;;;4982622;28;20534;-84
2023/07/15 12:45:03;;;;;;;3.00;1.77;;;33.60;54.90;;;;;;4998483;28;20554;-85
2023/07/15 12:47:57;;;;;;;2.63;1.60;;;33.60;52.30;;;;;;4982496;28;20439;-84
2023/07/15 12:50:36;;;;;;;2.23;1.97;;;33.20;49.50;;;;;;4979316;28;20443;-84
2023/07/15 12:53:32;;;;;;;2.50;2.00;;;33.20;49.00;;;;;;4995913;28;20545;-84
2023/07/15 12:56:13;;;;;;;3.60;1.90;;;33.20;46.80;;;;;;4996404;28;20510;-85
2023/07/15 12:58:57;;;;;;;3.87;1.90;;;33.50;47.70;;;;;;4975539;28;20446;-85
2023/07/15 13:01:33;;;;;;;2.40;1.70;;;33.70;45.30;;;;;;4997252;28;20438;-85
2023/07/15 13:04:17;;;;;;;2.00;1.70;;;33.50;42.00;;;;;;4982917;28;20791;-86
2023/07/15 13:07:01;;;;;;;2.60;2.03;;;33.60;42.90;;;;;;4977135;28;20439;-85
2023/07/15 13:09:55;;;;;;;1.83;1.70;;;34.20;43.90;;;;;;4976774;28;20472;-85
2023/07/15 13:12:29;;;;;;;3.33;1.90;;;34.50;42.00;;;;;;4995418;28;20922;-86